Time;durP1;ratioP1;P1;durP2;ratioP2;P2;SDS_P1;SDS_P2;PMS_P1;PMS_P2;Temp;Humidity;BMP_temperature;BMP_pressure;BME280_temperature;BME280_humidity;BME280_pressure;Samples;Min_cycle;Max_cycle;Signal;HPM_P1;HPM_P2
2022/08/22 00:00:13;;;;;;;11.23;10.30;;;;;;;17.74;100.00;92260.31;5010700;28;20246;-71
2022/08/22 00:02:57;;;;;;;10.33;9.43;;;;;;;17.76;100.00;92253.59;5030342;28;20176;-71
2022/08/22 00:05:47;;;;;;;10.57;9.73;;;;;;;17.60;100.00;92250.84;5035302;28;20222;-70
2022/08/22 00:08:25;;;;;;;10.90;10.00;;;;;;;17.70;99.53;92251.53;5039141;28;20226;-72
2022/08/22 00:11:11;;;;;;;11.60;10.57;;;;;;;17.73;100.00;92238.41;5038981;28;20213;-71
2022/08/22 00:13:46;;;;;;;10.73;9.80;;;;;;;17.83;99.57;92243.25;5011665;28;20195;-71
2022/08/22 00:16:21;;;;;;;11.10;10.30;;;;;;;17.80;99.64;92251.84;5023013;28;20250;-72
2022/08/22 00:19:06;;;;;;;10.80;10.00;;;;;;;17.70;100.00;92238.31;5029948;28;20219;-71
2022/08/22 00:21:39;;;;;;;11.77;10.73;;;;;;;17.60;100.00;92240.28;5029536;28;20190;-70
2022/08/22 00:24:14;;;;;;;11.53;10.37;;;;;;;17.56;100.00;92236.78;5029421;28;20233;-71
2022/08/22 00:26:43;;;;;;;10.80;9.83;;;;;;;17.52;100.00;92243.81;5046240;28;20218;-71
2022/08/22 00:29:21;;;;;;;10.27;9.57;;;;;;;17.67;99.07;92238.97;5048434;28;20215;-71
2022/08/22 00:31:53;;;;;;;11.77;10.60;;;;;;;17.73;98.80;92242.94;5039942;28;20190;-71
2022/08/22 00:34:31;;;;;;;11.43;10.00;;;;;;;17.43;99.42;92227.28;5028570;28;20255;-71
2022/08/22 00:37:15;;;;;;;10.67;9.77;;;;;;;17.59;99.61;92235.34;5041952;28;20205;-70
2022/08/22 00:39:48;;;;;;;12.10;11.27;;;;;;;17.48;100.00;92237.66;5032507;28;20246;-72
2022/08/22 00:42:45;;;;;;;10.87;10.07;;;;;;;17.46;100.00;92231.91;5053434;28;20186;-71
2022/08/22 00:45:30;;;;;;;12.83;11.83;;;;;;;17.53;100.00;92226.88;5033295;28;20223;-71
2022/08/22 00:47:58;;;;;;;12.70;11.77;;;;;;;17.48;100.00;92223.66;5033543;28;20180;-71
2022/08/22 00:50:33;;;;;;;12.77;11.60;;;;;;;17.42;100.00;92228.38;5032811;28;20227;-71
2022/08/22 00:53:13;;;;;;;13.27;12.17;;;;;;;17.55;100.00;92218.63;5033201;28;20179;-71
2022/08/22 00:55:54;;;;;;;13.83;12.73;;;;;;;17.52;100.00;92227.22;5032474;28;20226;-71
2022/08/22 00:59:00;;;;;;;12.80;11.70;;;;;;;17.54;100.00;92212.56;5032946;28;20203;-71
2022/08/22 01:01:39;;;;;;;13.20;11.83;;;;;;;17.60;100.00;92219.16;4991122;28;20213;-70
2022/08/22 01:04:31;;;;;;;13.17;11.77;;;;;;;17.52;100.00;92227.22;4997236;28;20244;-71
2022/08/22 01:07:19;;;;;;;12.43;11.43;;;;;;;17.56;100.00;92226.22;5045790;28;20225;-72
2022/08/22 01:10:13;;;;;;;13.10;12.00;;;;;;;17.50;100.00;92221.47;5051657;28;20289;-70
2022/08/22 01:13:02;;;;;;;13.33;11.93;;;;;;;17.49;100.00;92202.22;5051686;28;20186;-72
2022/08/22 01:15:33;;;;;;;12.80;11.70;;;;;;;17.67;100.00;92208.06;5051398;28;20237;-70
2022/08/22 01:17:59;;;;;;;12.33;11.13;;;;;;;17.68;100.00;92224.69;5052966;28;20243;-73
2022/08/22 01:20:33;;;;;;;12.93;11.77;;;;;;;17.68;100.00;92224.69;5051351;28;20222;-71
2022/08/22 01:23:07;;;;;;;12.10;10.90;;;;;;;17.68;100.00;92224.69;5052721;28;20185;-71
2022/08/22 01:25:58;;;;;;;11.73;10.73;;;;;;;17.59;100.00;92228.19;5051100;28;20227;-72
2022/08/22 01:28:32;;;;;;;11.70;10.70;;;;;;;17.68;100.00;92232.59;5052017;28;20179;-74
2022/08/22 01:31:07;;;;;;;11.10;10.30;;;;;;;17.67;100.00;92228.41;5051500;28;20197;-71
2022/08/22 01:33:38;;;;;;;12.57;11.73;;;;;;;17.40;100.00;92233.22;5051806;28;20187;-71
2022/08/22 01:36:15;;;;;;;10.43;9.53;;;;;;;17.45;100.00;92238.31;5040054;28;20195;-71
2022/08/22 01:38:59;;;;;;;10.30;9.40;;;;;;;17.54;100.00;92241.59;5031798;28;20241;-71
2022/08/22 01:41:48;;;;;;;10.70;9.67;;;;;;;17.42;100.00;92233.66;5041767;28;20246;-71
2022/08/22 01:44:58;;;;;;;10.13;9.43;;;;;;;17.43;100.00;92245.00;5051521;28;20223;-72
2022/08/22 01:47:35;;;;;;;10.50;9.70;;;;;;;17.06;100.00;92177.44;5020374;28;20202;-69
2022/08/22 01:50:45;;;;;;;10.73;9.93;;;;;;;17.36;100.00;92223.63;5030710;28;20222;-70
2022/08/22 01:53:27;;;;;;;10.30;9.60;;;;;;;17.30;100.00;92215.19;4971471;29;20193;-71
2022/08/22 01:56:10;;;;;;;11.43;10.30;;;;;;;17.43;100.00;92232.53;5030069;28;20253;-71
2022/08/22 01:58:42;;;;;;;11.50;10.67;;;;;;;17.44;100.00;92231.50;5031443;28;20212;-71
2022/08/22 02:01:16;;;;;;;11.67;10.50;;;;;;;17.35;100.00;92228.13;5031727;28;20184;-70
2022/08/22 02:04:03;;;;;;;10.80;9.93;;;;;;;17.40;100.00;92230.56;5031794;28;20202;-72
2022/08/22 02:06:56;;;;;;;10.87;9.97;;;;;;;17.24;100.00;92211.22;5031454;28;20204;-70
2022/08/22 02:09:37;;;;;;;10.37;9.57;;;;;;;17.36;100.00;92234.19;5031613;28;20245;-70
2022/08/22 02:12:17;;;;;;;11.17;10.20;;;;;;;17.31;100.00;92227.28;5026812;28;20217;-70
2022/08/22 02:15:04;;;;;;;11.00;10.20;;;;;;;17.19;100.00;92223.84;5012148;28;20227;-71
2022/08/22 02:18:01;;;;;;;11.40;10.27;;;;;;;17.24;100.00;92236.81;5031601;28;20199;-70
2022/08/22 02:20:36;;;;;;;11.43;10.57;;;;;;;17.07;100.00;92237.00;5030635;28;20211;-71
2022/08/22 02:23:17;;;;;;;10.87;9.87;;;;;;;17.09;100.00;92238.22;5031904;28;21188;-70
2022/08/22 02:26:03;;;;;;;11.27;10.17;;;;;;;17.15;100.00;92239.53;5030845;28;20206;-71
2022/08/22 02:28:34;;;;;;;12.07;11.03;;;;;;;17.04;100.00;92227.88;5031028;28;20186;-71
2022/08/22 02:31:17;;;;;;;11.93;11.00;;;;;;;16.91;100.00;92234.22;5031060;28;20198;-71
2022/08/22 02:33:45;;;;;;;11.20;10.30;;;;;;;16.92;100.00;92230.47;5030975;28;20179;-71
2022/08/22 02:36:19;;;;;;;12.37;11.43;;;;;;;17.05;100.00;92237.34;5035703;28;20944;-71
2022/08/22 02:38:58;;;;;;;11.93;10.90;;;;;;;16.97;100.00;92234.78;5011334;28;20230;-71
2022/08/22 02:41:34;;;;;;;12.50;11.40;;;;;;;16.56;100.00;92226.97;5040452;28;20247;-71
2022/08/22 02:44:12;;;;;;;11.70;10.63;;;;;;;16.72;100.00;92222.63;5049666;28;20237;-70
2022/08/22 02:46:48;;;;;;;14.10;11.57;;;;;;;16.54;100.00;92229.16;5041791;28;20181;-70
2022/08/22 02:49:54;;;;;;;13.00;11.80;;;;;;;16.57;100.00;92231.91;5031087;28;20248;-71
2022/08/22 02:52:26;;;;;;;12.47;10.80;;;;;;;16.71;100.00;92235.03;5011486;28;20226;-70
2022/08/22 02:55:01;;;;;;;12.53;11.60;;;;;;;16.50;100.00;92197.41;5013103;28;20233;-71
2022/08/22 02:57:39;;;;;;;12.43;11.40;;;;;;;16.54;100.00;92219.38;5030909;28;20209;-71
2022/08/22 03:00:26;;;;;;;12.93;10.83;;;;;;;16.71;100.00;92235.03;5062367;28;20273;-71
2022/08/22 03:02:51;;;;;;;11.40;10.50;;;;;;;16.50;100.00;92236.94;5030971;28;20183;-71
2022/08/22 03:05:19;;;;;;;11.93;10.73;;;;;;;16.52;100.00;92233.97;5035409;28;20229;-71
2022/08/22 03:07:54;;;;;;;12.67;11.53;;;;;;;16.56;100.00;92235.63;5050420;28;20226;-71
2022/08/22 03:10:28;;;;;;;11.00;10.10;;;;;;;16.44;100.00;92225.03;5049420;28;20755;-71
2022/08/22 03:13:00;;;;;;;12.67;11.00;;;;;;;16.57;100.00;92242.47;5037947;28;20193;-72
2022/08/22 03:15:35;;;;;;;13.00;11.80;;;;;;;16.52;100.00;92226.06;5029696;28;20231;-70
2022/08/22 03:18:15;;;;;;;14.43;11.87;;;;;;;16.61;100.00;92238.06;5031156;28;20202;-70
2022/08/22 03:20:54;;;;;;;12.23;11.03;;;;;;;16.65;100.00;92241.63;5030045;28;20219;-71
2022/08/22 03:23:37;;;;;;;12.90;11.73;;;;;;;16.47;100.00;92245.47;5030491;28;20174;-71
2022/08/22 03:26:40;;;;;;;12.20;11.10;;;;;;;16.51;100.00;92251.66;5029854;28;20207;-71
2022/08/22 03:29:17;;;;;;;12.10;11.10;;;;;;;16.29;100.00;92222.19;5029951;28;20254;-71
2022/08/22 03:32:23;;;;;;;14.17;12.87;;;;;;;16.41;100.00;92246.75;5029812;28;20207;-72
2022/08/22 03:34:54;;;;;;;14.30;13.10;;;;;;;16.41;100.00;92244.09;4987775;28;20227;-71
2022/08/22 03:37:52;;;;;;;13.53;12.33;;;;;;;16.38;100.00;92247.38;5016175;28;20277;-70
2022/08/22 03:41:05;;;;;;;13.80;12.50;;;;;;;16.27;100.00;92246.22;5021754;28;21226;-70
2022/08/22 03:43:50;;;;;;;14.03;12.63;;;;;;;16.44;100.00;92251.41;4983920;28;20267;-71
2022/08/22 03:46:34;;;;;;;14.43;12.97;;;;;;;16.44;100.00;92246.13;5029950;28;20175;-71
2022/08/22 03:49:25;;;;;;;14.57;12.43;;;;;;;16.45;100.00;92239.75;5035230;28;20226;-72
2022/08/22 03:52:20;;;;;;;14.53;13.17;;;;;;;16.47;100.00;92250.75;5031505;28;20245;-71
2022/08/22 03:54:52;;;;;;;15.63;13.87;;;;;;;16.55;100.00;92249.91;5030546;28;20228;-71
2022/08/22 03:57:39;;;;;;;13.40;12.20;;;;;;;16.51;100.00;92245.63;5050072;28;20269;-71
2022/08/22 04:00:10;;;;;;;14.63;13.13;;;;;;;16.47;100.00;92242.09;5045151;28;20245;-71
2022/08/22 04:03:12;;;;;;;14.43;13.23;;;;;;;16.53;100.00;92240.78;5030189;28;20192;-71
2022/08/22 04:05:57;;;;;;;13.97;12.60;;;;;;;16.43;100.00;92244.56;5037074;28;20214;-71
2022/08/22 04:08:22;;;;;;;13.47;12.27;;;;;;;16.55;100.00;92236.72;5049692;28;20218;-70
2022/08/22 04:11:06;;;;;;;12.40;11.20;;;;;;;16.66;100.00;92243.16;5048560;28;20248;-72
2022/08/22 04:13:52;;;;;;;13.07;11.97;;;;;;;16.71;100.00;92229.78;5033516;28;20179;-70
2022/08/22 04:16:36;;;;;;;12.17;11.17;;;;;;;16.86;100.00;92241.56;5026184;28;20202;-69
2022/08/22 04:19:23;;;;;;;11.03;10.17;;;;;;;16.93;99.46;92239.97;5033584;28;20240;-72
2022/08/22 04:22:01;;;;;;;12.13;11.07;;;;;;;17.03;99.28;92242.16;5033562;28;20191;-71
2022/08/22 04:24:29;;;;;;;12.53;11.30;;;;;;;17.11;98.30;92251.84;5033102;28;20251;-71
2022/08/22 04:27:01;;;;;;;12.07;11.13;;;;;;;16.94;98.51;92209.84;5033441;28;20195;-70
2022/08/22 04:29:47;;;;;;;12.80;11.80;;;;;;;16.88;99.52;92205.09;5033070;28;20291;-72
2022/08/22 04:32:33;;;;;;;11.87;10.87;;;;;;;17.28;99.03;92249.03;5014162;28;20184;-72
2022/08/22 04:35:07;;;;;;;10.83;10.07;;;;;;;17.34;98.06;92254.84;5019003;28;20282;-71
2022/08/22 04:37:49;;;;;;;12.43;11.43;;;;;;;17.47;96.93;92251.16;5042712;28;20195;-71
2022/08/22 04:40:49;;;;;;;14.33;12.83;;;;;;;17.29;97.56;92258.47;5032764;28;20226;-71
2022/08/22 04:43:31;;;;;;;15.13;13.70;;;;;;;17.48;97.07;92253.47;5033637;28;20183;-70
2022/08/22 04:46:15;;;;;;;13.87;12.63;;;;;;;17.80;96.15;92253.72;5032583;28;20207;-72
2022/08/22 04:48:53;;;;;;;15.10;13.60;;;;;;;17.90;95.47;92263.84;5033121;28;20238;-72
2022/08/22 04:51:47;;;;;;;14.23;12.83;;;;;;;18.21;94.01;92264.78;5032948;28;20205;-71
2022/08/22 04:54:44;;;;;;;15.17;13.00;;;;;;;18.51;92.38;92257.38;5033061;28;20231;-71
2022/08/22 04:57:24;;;;;;;15.63;14.17;;;;;;;18.98;91.95;92268.88;5013645;28;20211;-71
2022/08/22 04:59:49;;;;;;;15.30;13.87;;;;;;;18.90;91.59;92259.22;5014381;28;20232;-71
2022/08/22 05:02:26;;;;;;;18.93;15.13;;;;;;;19.04;92.12;92265.66;5032974;28;20184;-71
2022/08/22 05:04:59;;;;;;;16.97;15.27;;;;;;;18.97;91.01;92249.59;5034103;28;20263;-70
2022/08/22 05:07:36;;;;;;;15.37;13.90;;;;;;;18.80;91.24;92265.00;5052343;28;20224;-71
2022/08/22 05:10:09;;;;;;;16.03;13.80;;;;;;;18.58;94.00;92270.81;5047963;28;20283;-71
2022/08/22 05:12:42;;;;;;;16.57;14.77;;;;;;;18.95;92.31;92275.63;5023064;28;20181;-71
2022/08/22 05:15:16;;;;;;;16.93;14.50;;;;;;;18.90;92.70;92275.09;5016950;28;20223;-70
2022/08/22 05:17:43;;;;;;;15.60;14.17;;;;;;;19.16;91.13;92288.63;5032456;28;20201;-71
2022/08/22 05:20:14;;;;;;;16.67;14.93;;;;;;;19.32;90.43;92286.84;5036641;28;20224;-73
2022/08/22 05:22:46;;;;;;;16.60;14.90;;;;;;;19.25;90.64;92284.00;5052292;28;20212;-72
2022/08/22 05:25:17;;;;;;;17.07;14.50;;;;;;;19.08;92.04;92285.03;5044603;28;20254;-71
2022/08/22 05:27:51;;;;;;;16.10;14.50;;;;;;;19.01;92.14;92302.59;5052348;28;20183;-71
2022/08/22 05:30:26;;;;;;;17.90;16.00;;;;;;;18.45;95.41;92274.56;5051135;28;20231;-71
2022/08/22 05:32:51;;;;;;;16.23;14.63;;;;;;;18.58;95.49;92295.38;5052404;28;20184;-72
2022/08/22 05:35:22;;;;;;;15.77;14.17;;;;;;;18.40;95.95;92272.16;5051526;28;20317;-71
2022/08/22 05:37:52;;;;;;;17.43;15.63;;;;;;;18.59;95.84;92290.84;5039567;28;20268;-71
2022/08/22 05:40:24;;;;;;;16.07;14.57;;;;;;;18.43;95.21;92274.91;5031491;28;20765;-71
2022/08/22 05:42:52;;;;;;;20.23;15.93;;;;;;;18.60;94.68;92295.03;5032285;28;20253;-70
2022/08/22 05:45:18;;;;;;;17.00;15.33;;;;;;;18.45;95.93;92277.22;5036881;28;20208;-71
2022/08/22 05:48:21;;;;;;;16.27;14.67;;;;;;;18.80;94.82;92307.31;5033972;28;20174;-71
2022/08/22 05:50:53;;;;;;;17.77;14.97;;;;;;;18.84;94.92;92303.66;5031625;28;20251;-71
2022/08/22 05:53:37;;;;;;;18.20;16.07;;;;;;;19.00;94.06;92322.25;5031831;28;20208;-71
2022/08/22 05:56:05;;;;;;;17.80;15.17;;;;;;;18.71;95.66;92319.91;5031396;28;20240;-71
2022/08/22 05:58:42;;;;;;;17.97;15.63;;;;;;;19.00;93.74;92324.91;5030664;28;20225;-71
2022/08/22 06:01:45;;;;;;;17.77;15.43;;;;;;;19.03;93.83;92326.88;5031547;28;20237;-71
2022/08/22 06:04:15;;;;;;;17.27;14.97;;;;;;;19.13;92.86;92329.00;5031495;28;20234;-70
2022/08/22 06:06:48;;;;;;;23.10;16.20;;;;;;;19.00;93.55;92324.91;5047702;28;20187;-71
2022/08/22 06:09:27;;;;;;;18.27;16.37;;;;;;;19.08;94.18;92334.56;5051297;28;20237;-70
2022/08/22 06:12:03;;;;;;;19.87;15.73;;;;;;;19.36;93.02;92335.38;5047131;28;20250;-71
2022/08/22 06:14:42;;;;;;;17.53;15.43;;;;;;;19.34;91.83;92337.56;5029956;28;20225;-73
2022/08/22 06:17:16;;;;;;;17.13;15.23;;;;;;;19.31;93.40;92343.53;5012021;28;20190;-71
2022/08/22 06:19:46;;;;;;;17.93;16.07;;;;;;;19.08;91.92;92340.63;5012118;28;20240;-71
2022/08/22 06:22:18;;;;;;;19.87;14.80;;;;;;;19.32;91.11;92323.91;5031539;28;20251;-72
2022/08/22 06:24:43;;;;;;;16.83;15.07;;;;;;;19.73;89.79;92334.06;5030750;28;20229;-71
2022/08/22 06:27:13;;;;;;;20.30;16.47;;;;;;;19.51;89.16;92331.97;5031482;28;20212;-70
2022/08/22 06:29:43;;;;;;;16.83;15.13;;;;;;;20.11;87.88;92347.47;5030819;28;20228;-71
2022/08/22 06:32:19;;;;;;;18.03;15.57;;;;;;;20.43;85.41;92345.59;5031196;28;20173;-71
2022/08/22 06:34:46;;;;;;;17.00;15.17;;;;;;;20.62;83.95;92349.06;5030684;28;20236;-71
2022/08/22 06:37:24;;;;;;;17.27;14.70;;;;;;;21.29;80.34;92339.09;5029832;28;20193;-71
2022/08/22 06:39:52;;;;;;;15.57;13.82;;;;;;;21.11;79.69;92327.34;5030737;28;20241;-71
2022/08/22 06:42:24;;;;;;;16.42;13.77;;;;;;;21.42;79.70;92338.59;5031201;28;20191;-71
2022/08/22 06:44:56;;;;;;;14.98;13.73;;;;;;;21.69;75.53;92313.66;5031599;28;20228;-71
2022/08/22 06:47:27;;;;;;;15.13;13.68;;;;;;;21.76;76.28;92332.41;5036332;28;20176;-71
2022/08/22 06:50:04;;;;;;;15.35;13.80;;;;;;;21.87;74.42;92351.19;5030470;28;20247;-71
2022/08/22 06:52:33;;;;;;;13.88;12.68;;;;;;;22.13;71.98;92346.72;5030720;28;20182;-71
2022/08/22 06:55:03;;;;;;;12.52;11.50;;;;;;;22.16;71.96;92353.97;5030198;28;20255;-72
2022/08/22 06:57:34;;;;;;;14.23;12.93;;;;;;;21.32;75.48;92325.13;5029741;28;20292;-72
2022/08/22 07:00:03;;;;;;;14.30;12.93;;;;;;;21.88;74.17;92342.13;5030077;28;20449;-73
2022/08/22 07:02:36;;;;;;;14.07;12.63;;;;;;;22.57;70.96;92315.09;5030940;28;20212;-69
2022/08/22 07:05:04;;;;;;;12.25;11.38;;;;;;;22.55;70.85;92335.22;5029944;28;20216;-71
2022/08/22 07:07:30;;;;;;;12.95;11.65;;;;;;;22.05;71.21;92344.31;5030309;28;20222;-71
2022/08/22 07:09:56;;;;;;;13.52;11.80;;;;;;;21.58;73.35;92339.28;5029606;28;20260;-71
2022/08/22 07:12:28;;;;;;;12.13;11.23;;;;;;;21.77;71.98;92338.50;5030269;28;20188;-72
2022/08/22 07:14:59;;;;;;;12.52;11.50;;;;;;;22.40;70.89;92350.19;5029705;28;20227;-72
2022/08/22 07:17:28;;;;;;;13.85;12.55;;;;;;;22.77;69.53;92356.44;5030267;28;20209;-71
2022/08/22 07:19:56;;;;;;;13.02;11.85;;;;;;;22.43;70.01;92365.41;5030085;28;20235;-71
2022/08/22 07:22:29;;;;;;;12.98;11.85;;;;;;;22.08;72.68;92360.31;5030616;28;20829;-69
2022/08/22 07:25:08;;;;;;;13.85;12.55;;;;;;;22.11;71.30;92358.84;5029549;28;20232;-72
2022/08/22 07:28:07;;;;;;;14.73;13.40;;;;;;;21.92;73.21;92356.22;5030282;28;20220;-71
2022/08/22 07:30:52;;;;;;;13.20;11.88;;;;;;;22.47;70.23;92365.47;5036754;28;20234;-71
2022/08/22 07:33:43;;;;;;;12.93;11.77;;;;;;;22.35;69.47;92323.88;5050261;28;20200;-71
2022/08/22 07:36:22;;;;;;;12.77;11.57;;;;;;;22.59;69.26;92358.09;5028011;28;20218;-71
2022/08/22 07:39:05;;;;;;;12.93;11.70;;;;;;;22.72;69.46;92354.13;5010294;28;20220;-70
2022/08/22 07:41:59;;;;;;;14.55;13.23;;;;;;;22.69;68.65;92362.81;5025698;28;20227;-71
2022/08/22 07:44:50;;;;;;;13.95;12.63;;;;;;;22.46;71.68;92359.38;4988968;28;20286;-71
2022/08/22 07:47:19;;;;;;;12.52;11.50;;;;;;;22.15;70.73;92328.50;5021088;28;20223;-72
2022/08/22 07:49:50;;;;;;;14.23;12.82;;;;;;;23.31;67.86;92356.84;5029550;28;20285;-71
2022/08/22 07:52:17;;;;;;;13.68;12.40;;;;;;;23.42;67.63;92352.41;5030390;28;20193;-70
2022/08/22 07:54:52;;;;;;;13.75;12.55;;;;;;;23.49;67.99;92357.81;5029172;28;20253;-70
2022/08/22 07:57:44;;;;;;;13.63;12.25;;;;;;;23.61;66.36;92362.88;5030187;28;20208;-71
2022/08/22 08:00:19;;;;;;;13.15;11.90;;;;;;;23.98;65.47;92362.16;5029521;28;20222;-71
2022/08/22 08:02:48;;;;;;;13.02;11.93;;;;;;;23.80;66.07;92366.53;5029101;28;20193;-72
2022/08/22 08:05:14;;;;;;;14.93;13.45;;;;;;;23.91;65.20;92362.81;5029167;28;20229;-72
2022/08/22 08:07:44;;;;;;;12.93;11.75;;;;;;;24.26;64.11;92362.41;5029913;28;20213;-71
2022/08/22 08:10:15;;;;;;;12.60;11.50;;;;;;;24.61;63.56;92352.78;5028273;28;20222;-72
2022/08/22 08:12:46;;;;;;;14.60;12.32;;;;;;;24.06;63.05;92275.72;5019510;28;20277;-72
2022/08/22 08:15:17;;;;;;;13.52;12.23;;;;;;;24.45;62.97;92364.88;5014378;28;20229;-71
2022/08/22 08:17:45;;;;;;;13.50;12.32;;;;;;;24.49;63.89;92369.09;5029718;28;20235;-71
2022/08/22 08:20:15;;;;;;;13.63;12.18;;;;;;;24.09;65.10;92341.69;5029571;28;20276;-71
2022/08/22 08:22:44;;;;;;;13.32;12.13;;;;;;;23.40;65.48;92337.88;5029333;28;20193;-72
2022/08/22 08:25:18;;;;;;;13.85;12.55;;;;;;;22.87;68.41;92347.84;5029356;28;20275;-72
2022/08/22 08:30:31;;;;;;;14.13;12.85;;;;;;;22.73;70.90;92342.34;5029052;28;20795;-69
2022/08/22 08:33:00;;;;;;;14.48;12.90;;;;;;;22.39;71.73;92327.38;5029992;28;20184;-72
2022/08/22 08:35:30;;;;;;;14.88;13.40;;;;;;;22.85;70.48;92346.69;5028953;28;20221;-71
2022/08/22 08:38:00;;;;;;;14.07;12.65;;;;;;;22.97;68.49;92341.91;5029637;28;20213;-71
2022/08/22 08:40:34;;;;;;;14.57;13.18;;;;;;;23.31;68.35;92348.84;5035219;28;20225;-72
2022/08/22 08:43:26;;;;;;;13.93;12.73;;;;;;;23.65;67.67;92349.59;5049658;28;20183;-72
2022/08/22 08:46:29;;;;;;;14.75;13.40;;;;;;;23.38;70.59;92340.16;5038405;28;20221;-71
2022/08/22 08:49:29;;;;;;;13.68;12.52;;;;;;;23.05;67.47;92343.53;5029198;28;20252;-71
2022/08/22 08:52:21;;;;;;;13.40;12.10;;;;;;;23.11;67.82;92338.66;5047795;28;20200;-70
2022/08/22 08:55:07;;;;;;;14.82;13.27;;;;;;;23.15;69.01;92337.56;5046700;28;20255;-71
2022/08/22 08:57:57;;;;;;;15.48;13.98;;;;;;;23.23;67.75;92319.78;5029192;28;20214;-71
2022/08/22 09:00:54;;;;;;;14.90;13.50;;;;;;;22.93;68.28;92321.69;5031168;28;20225;-70
2022/08/22 09:03:44;;;;;;;14.10;12.88;;;;;;;22.94;69.28;92342.63;5011926;28;20201;-71
2022/08/22 09:06:27;;;;;;;13.60;12.38;;;;;;;22.81;69.87;92338.66;5032452;28;20225;-73
2022/08/22 09:09:10;;;;;;;13.63;12.48;;;;;;;22.72;70.68;92340.81;5031502;28;20662;-70
2022/08/22 09:12:12;;;;;;;14.30;12.95;;;;;;;22.60;71.54;92341.00;5027642;28;20191;-72
2022/08/22 09:14:57;;;;;;;15.20;13.88;;;;;;;22.95;69.29;92336.19;5012405;28;20232;-72
2022/08/22 09:17:50;;;;;;;13.93;12.63;;;;;;;23.13;69.63;92341.75;5032609;28;20259;-72
2022/08/22 09:20:23;;;;;;;14.50;13.20;;;;;;;22.97;66.92;92309.97;5032264;28;20225;-72
2022/08/22 09:23:03;;;;;;;14.32;12.82;;;;;;;23.23;68.37;92341.88;5032683;28;20945;-71
2022/08/22 09:25:54;;;;;;;14.30;13.10;;;;;;;23.04;68.03;92331.34;5031701;28;20229;-71
2022/08/22 09:28:37;;;;;;;14.35;13.00;;;;;;;22.96;69.55;92329.72;4993479;28;20214;-71
2022/08/22 09:31:14;;;;;;;13.88;12.52;;;;;;;23.44;65.56;92342.13;5024234;28;20201;-71
2022/08/22 09:33:50;;;;;;;14.43;13.10;;;;;;;23.69;65.70;92348.50;5031751;28;20184;-71
2022/08/22 09:36:30;;;;;;;17.27;12.73;;;;;;;23.23;66.35;92333.88;5032111;28;20185;-70
2022/08/22 09:39:16;;;;;;;16.38;13.68;;;;;;;22.79;69.98;92334.78;5031595;28;20225;-71
2022/08/22 09:42:06;;;;;;;15.25;12.75;;;;;;;23.01;69.21;92337.41;5031732;28;20178;-71
2022/08/22 09:44:50;;;;;;;14.57;13.32;;;;;;;23.06;68.52;92336.31;5031537;28;20916;-70
2022/08/22 09:47:25;;;;;;;14.25;12.90;;;;;;;22.91;70.10;92335.34;5026235;28;20178;-71
2022/08/22 09:50:05;;;;;;;15.82;13.98;;;;;;;23.28;68.89;92322.94;5031694;28;20289;-71
2022/08/22 09:52:42;;;;;;;14.55;12.88;;;;;;;22.80;69.98;92328.38;5031772;28;20177;-71
2022/08/22 09:55:10;;;;;;;16.33;13.20;;;;;;;22.94;69.81;92318.66;5031292;28;20212;-71
2022/08/22 09:58:22;;;;;;;15.57;14.05;;;;;;;22.58;70.97;92318.53;5031799;28;20198;-73
2022/08/22 10:00:56;;;;;;;14.18;12.90;;;;;;;23.02;69.55;92317.63;4970365;28;20234;-71
2022/08/22 10:03:28;;;;;;;18.30;16.00;;;;;;;23.23;70.03;92319.78;4971143;29;20235;-72
2022/08/22 10:06:09;;;;;;;14.82;13.43;;;;;;;23.55;69.02;92319.03;5010301;28;20227;-71
2022/08/22 10:09:05;;;;;;;16.25;13.95;;;;;;;23.74;67.15;92313.53;5030879;28;20212;-72
2022/08/22 10:12:05;;;;;;;15.18;13.15;;;;;;;23.99;65.94;92316.44;5044987;28;20182;-71
2022/08/22 10:15:11;;;;;;;19.23;14.23;;;;;;;24.22;64.84;92303.66;5028323;28;20241;-71
2022/08/22 10:17:47;;;;;;;17.65;13.98;;;;;;;23.86;64.73;92271.72;5011618;28;20227;-71
2022/08/22 10:20:23;;;;;;;14.43;12.98;;;;;;;23.77;66.12;92287.28;5016572;28;20217;-71
2022/08/22 10:22:59;;;;;;;17.15;13.45;;;;;;;23.66;65.99;92303.13;5031533;28;20197;-72
2022/08/22 10:25:32;;;;;;;14.32;13.05;;;;;;;23.60;67.23;92305.38;5030377;28;20225;-71
2022/08/22 10:28:18;;;;;;;14.65;13.35;;;;;;;23.25;67.57;92307.66;5031520;28;20196;-71
2022/08/22 10:30:54;;;;;;;15.05;13.60;;;;;;;23.63;67.32;92301.22;5039572;28;20214;-72
2022/08/22 10:33:43;;;;;;;14.60;13.20;;;;;;;23.55;66.87;92292.38;5051066;28;20177;-71
2022/08/22 10:36:14;;;;;;;13.57;12.45;;;;;;;23.38;67.02;92268.97;5037974;28;20305;-72
2022/08/22 10:38:53;;;;;;;14.80;13.50;;;;;;;23.61;67.30;92274.16;5030517;28;20221;-72
2022/08/22 10:41:36;;;;;;;15.00;13.45;;;;;;;24.07;67.83;92286.03;5030850;28;20291;-71
2022/08/22 10:44:02;;;;;;;15.00;13.32;;;;;;;24.59;64.54;92282.97;5030876;28;20248;-71
2022/08/22 10:46:36;;;;;;;16.10;13.98;;;;;;;24.42;65.71;92288.19;5030458;28;20187;-71
2022/08/22 10:49:10;;;;;;;14.30;12.88;;;;;;;23.49;67.68;92287.72;5030541;28;20228;-71
2022/08/22 10:51:46;;;;;;;15.85;14.35;;;;;;;24.09;67.15;92291.78;5030648;28;20794;-72
2022/08/22 10:54:39;;;;;;;18.85;14.32;;;;;;;24.40;66.52;92288.56;5030509;28;20234;-71
2022/08/22 10:57:22;;;;;;;16.00;13.25;;;;;;;24.32;65.40;92300.34;5031038;28;20243;-71
2022/08/22 10:59:58;;;;;;;15.32;13.40;;;;;;;23.66;66.05;92293.25;5031038;28;20241;-71
2022/08/22 11:02:32;;;;;;;45.40;15.23;;;;;;;23.90;67.86;92299.19;5042931;28;20182;-71
2022/08/22 11:05:19;;;;;;;15.07;13.57;;;;;;;23.73;67.44;92293.34;5032552;28;20285;-71
2022/08/22 11:07:53;;;;;;;14.43;13.02;;;;;;;24.17;63.85;92282.69;5050425;28;20259;-72
2022/08/22 11:10:40;;;;;;;13.93;12.63;;;;;;;23.98;65.12;92290.13;5049508;28;20297;-71
2022/08/22 11:13:27;;;;;;;15.93;13.70;;;;;;;23.88;65.84;92286.22;5036535;28;20214;-72
2022/08/22 11:16:05;;;;;;;14.57;13.02;;;;;;;23.55;67.36;92286.28;5030083;28;20205;-71
2022/08/22 11:18:30;;;;;;;14.85;13.52;;;;;;;23.67;66.63;92284.13;5029934;28;20212;-71
2022/08/22 11:21:03;;;;;;;14.55;13.15;;;;;;;23.91;68.16;92284.72;5030553;28;20186;-71
2022/08/22 11:23:44;;;;;;;14.77;13.30;;;;;;;24.17;66.75;92282.69;5029703;28;20208;-72
2022/08/22 11:26:43;;;;;;;17.15;13.45;;;;;;;24.40;67.28;92282.47;5029927;28;20809;-72
2022/08/22 11:29:19;;;;;;;13.93;12.73;;;;;;;24.39;64.53;92288.94;5028960;28;20230;-71
2022/08/22 11:31:52;;;;;;;14.23;12.95;;;;;;;23.65;67.43;92254.41;5029797;28;20197;-72
2022/08/22 11:34:20;;;;;;;13.48;12.48;;;;;;;23.32;67.70;92286.44;5062185;28;20233;-71
2022/08/22 11:36:54;;;;;;;14.70;13.30;;;;;;;23.14;69.78;92277.44;5029187;28;20257;-71
2022/08/22 11:39:47;;;;;;;15.00;13.65;;;;;;;23.02;74.41;92274.25;5029851;28;20267;-70
2022/08/22 11:42:21;;;;;;;15.93;14.30;;;;;;;23.20;77.32;92276.00;5010434;28;20186;-70
2022/08/22 11:44:57;;;;;;;17.67;13.65;;;;;;;23.20;82.10;92278.66;5011706;28;20248;-71
2022/08/22 11:47:27;;;;;;;15.50;13.88;;;;;;;23.15;81.16;92278.19;5029792;28;20194;-71
2022/08/22 11:50:10;;;;;;;16.38;14.20;;;;;;;23.30;80.25;92270.03;5029644;28;20217;-71
2022/08/22 11:52:49;;;;;;;16.83;14.88;;;;;;;23.16;78.24;92280.50;5029951;28;20248;-71
2022/08/22 11:55:30;;;;;;;14.88;13.38;;;;;;;22.98;75.64;92258.22;5029142;28;20244;-71
2022/08/22 11:58:18;;;;;;;15.80;14.27;;;;;;;22.98;77.96;92263.56;5029630;28;20204;-72
2022/08/22 12:00:57;;;;;;;15.50;13.80;;;;;;;23.37;75.69;92259.47;5018113;28;20670;-71
2022/08/22 12:03:45;;;;;;;14.23;12.85;;;;;;;23.73;73.25;92257.91;5028968;28;20202;-72
2022/08/22 12:06:45;;;;;;;14.80;13.68;;;;;;;23.94;73.34;92263.41;4997463;28;20237;-71
2022/08/22 12:09:37;;;;;;;15.10;13.68;;;;;;;23.70;68.50;92267.38;4996895;28;20238;-73
2022/08/22 12:12:03;;;;;;;15.02;13.40;;;;;;;23.73;69.19;92261.34;5044304;28;20192;-72